deformed-offering

Nearby METAR Reports

 

KNUQ - Moffett Nas/Mtn, California, USA
Distance from station: N 9mi, 14km
Updated: Mon, 25-Jun-2018 11:56am PDT
Clear
Clear
 Wind from NW
Wind: NW 7 mph , 11 km/h
Temperature: 73°F , 23°C
Dew Point: 57°F , 14°C
Humidity: 57%
Barometer: 29.96 inHg , 1014.6 hPa
Clouds: Clear
Visibility: 10 miles , 16 km
2018/06/25 18:56 KNUQ 251856Z 31006KT 10SM CLR 23/14 A2996 RMK AO2 SLP149 T02330139
KSJC - San Jose, California, USA
Distance from station: NE 9mi, 14km
Updated: Mon, 25-Jun-2018 11:53am PDT
Few Clouds
Few Clouds
 Wind from varies
Wind: varies 3 mph , 6 km/h
Temperature: 75°F , 24°C
Dew Point: 55°F , 13°C
Humidity: 50%
Barometer: 29.96 inHg , 1014.6 hPa
Clouds: Few Clouds
Visibility: 10 miles , 16 km
Cloud details: Few Clouds 1500 ft
Few Clouds 7000 ft
2018/06/25 18:53 KSJC 251853Z VRB03KT 10SM FEW015 FEW070 24/13 A2996 RMK AO2 SLP144 T02440133
 
KRHV - San Jose/Reid, California, USA
Distance from station: ENE 12mi, 19km
Updated: Mon, 25-Jun-2018 11:47am PDT
Clear
Clear
 Wind from S
Wind: S 12 mph , 19 km/h
Temperature: 77°F , 25°C
Dew Point: 55°F , 13°C
Humidity: 47%
Barometer: 29.95 inHg , 1014.2 hPa
Clouds: Clear
Visibility: 10 miles , 16 km
2018/06/25 18:47 KRHV 251847Z 18010KT 10SM SKC 25/13 A2995
KPAO - Palo Alto, California, USA
Distance from station: NNW 14mi, 23km
Updated: Mon, 25-Jun-2018 11:47am PDT
Partly Cloudy
Partly Cloudy
 Wind from N
Wind: N 12 mph , 19 km/h
Temperature: 70°F , 21°C
Dew Point: 59°F , 15°C
Humidity: 69%
Barometer: 29.97 inHg , 1014.9 hPa
Clouds: Partly Cloudy
Visibility: 10 miles , 16 km
Cloud details: Partly Cloudy 2000 ft
2018/06/25 18:47 KPAO 251847Z 36010KT 10SM SCT020 21/15 A2997
 
KSQL - San Carlos Airpo, California, USA
Distance from station: NW 21mi, 34km
Updated: Mon, 25-Jun-2018 11:47am PDT
Partly Cloudy
Partly Cloudy
 Wind from W
Wind: W 12 mph , 19 km/h
Temperature: 70°F , 21°C
Dew Point: 55°F , 13°C
Humidity: 60%
Barometer: 29.97 inHg , 1014.9 hPa
Clouds: Partly Cloudy
Visibility: 10 miles , 16 km
Cloud details: Partly Cloudy 2000 ft
2018/06/25 18:47 KSQL 251847Z 27010KT 10SM SCT020 21/13 A2997
KE16 - San Martin, California, USA
Distance from station: ESE 27mi, 43km
Updated: Mon, 25-Jun-2018 11:50am PDT
Few Clouds
Few Clouds
 Wind from SSW
Wind: SSW 10 mph , 17 km/h, Gust: 16 mph , 26 km/h
Temperature: 66°F , 19°C
Dew Point: 54°F , 12°C
Humidity: 64%
Barometer: 30.02 inHg , 1016.6 hPa
Clouds: Few Clouds
Visibility: 10 miles , 16 km
Cloud details: Few Clouds 2300 ft
2018/06/25 18:50 KE16 251850Z AUTO 20009G14KT 10SM FEW023 19/12 A3002 RMK AO2
 
KWVI - Watsonville, California, USA
Distance from station: SSE 27mi, 44km
Updated: Mon, 25-Jun-2018 11:53am PDT
Overcast
Overcast
 Wind from SW
Wind: SW 12 mph , 19 km/h
Temperature: 63°F , 17°C
Dew Point: 54°F , 12°C
Humidity: 73%
Barometer: 30.03 inHg , 1016.9 hPa
Clouds: Overcast
Visibility: 10 miles , 16 km
Cloud details: Overcast 1600 ft
2018/06/25 18:53 KWVI 251853Z AUTO 23010KT 10SM OVC016 17/12 A3003 RMK AO2 SLP168 T01720122
KHWD - Hayward, California, USA
Distance from station: N 28mi, 44km
Updated: Mon, 25-Jun-2018 11:54am PDT
Clear
Clear
 Wind from W
Wind: W 6 mph , 9 km/h
Temperature: 68°F , 20°C
Dew Point: 55°F , 13°C
Humidity: 64%
Barometer: 29.98 inHg , 1015.2 hPa
Clouds: Clear
Visibility: 10 miles , 16 km
2018/06/25 18:54 KHWD 251854Z 27005KT 10SM CLR 20/13 A2998 RMK AO2 SLP160 T02000128
 
KSFO - San Francisco, California, USA
Distance from station: NW 30mi, 49km
Updated: Mon, 25-Jun-2018 11:56am PDT
Few Clouds
Few Clouds
 Wind from NNE
Wind: NNE 9 mph , 15 km/h
Temperature: 70°F , 21°C
Dew Point: 55°F , 13°C
Humidity: 60%
Barometer: 29.97 inHg , 1014.9 hPa
Clouds: Few Clouds
Visibility: 10 miles , 16 km
Cloud details: Few Clouds 20000 ft
2018/06/25 18:56 KSFO 251856Z 03008KT 10SM FEW200 21/13 A2997 RMK AO2 SLP149 T02110133
KHAF - Half Moon Bay, California, USA
Distance from station: WNW 31mi, 50km
Updated: Mon, 25-Jun-2018 12:00pm PDT
Overcast
Overcast
 Wind from S
Wind: S 9 mph , 15 km/h
Temperature: 57°F , 14°C
Dew Point: 54°F , 12°C
Humidity: 88%
Barometer: 30.03 inHg , 1016.9 hPa
Clouds: Overcast
Visibility: 8 miles , 13 km
Cloud details: Overcast 1400 ft
2018/06/25 19:00 KHAF 251900Z AUTO 18008KT 8SM OVC014 14/12 A3003 RMK AO2
 
KOAK - Oakland, California, USA
Distance from station: NNW 31mi, 50km
Updated: Mon, 25-Jun-2018 11:53am PDT
Few Clouds
Few Clouds
 Wind from NW
Wind: NW 10 mph , 17 km/h
Temperature: 64°F , 18°C
Dew Point: 55°F , 13°C
Humidity: 73%
Barometer: 29.98 inHg , 1015.2 hPa
Clouds: Few Clouds
Visibility: 10 miles , 16 km
Cloud details: Few Clouds 900 ft
Few Clouds 1500 ft
2018/06/25 18:53 KOAK 251853Z 31009KT 10SM FEW009 FEW015 18/13 A2998 RMK AO2 SLP152 T01830128
KLVK - Livermore, California, USA
Distance from station: NNE 31mi, 51km
Updated: Mon, 25-Jun-2018 11:53am PDT
Clear
Clear
 Wind from WNW
Wind: WNW 7 mph , 11 km/h
Temperature: 73°F , 23°C
Dew Point: 55°F , 13°C
Humidity: 53%
Barometer: 29.95 inHg , 1014.2 hPa
Clouds: Clear
Visibility: 10 miles , 16 km
2018/06/25 18:53 KLVK 251853Z 30006KT 10SM CLR 23/13 A2995 RMK AO2 SLP138 T02330128
 
KCVH - Hollister Muni, California, USA
Distance from station: SE 42mi, 68km
Updated: Mon, 25-Jun-2018 11:55am PDT
Clear
Clear
 Wind from W
Wind: W 9 mph , 15 km/h
Temperature: 66°F , 19°C
Dew Point: 57°F , 14°C
Humidity: 73%
Barometer: 30.01 inHg , 1016.3 hPa
Clouds: Clear
Visibility: 10 miles , 16 km
2018/06/25 18:55 KCVH 251855Z AUTO 27008KT 10SM CLR 19/14 A3001 RMK A01
KSNS - Salinas, California, USA
Distance from station: SSE 48mi, 77km
Updated: Mon, 25-Jun-2018 11:53am PDT
Overcast
Overcast
 Wind from NW
Wind: NW 10 mph , 17 km/h
Temperature: 63°F , 17°C
Dew Point: 55°F , 13°C
Humidity: 77%
Barometer: 30.02 inHg , 1016.6 hPa
Clouds: Overcast
Visibility: 10 miles , 16 km
Cloud details: Overcast 1100 ft
2018/06/25 18:53 KSNS 251853Z 32009KT 10SM OVC011 17/13 A3002 RMK AO2 SLP176 T01670133
 
KMRY - Monterey, California, USA
Distance from station: SSE 49mi, 78km
Updated: Mon, 25-Jun-2018 12:07pm PDT
Overcast
Overcast
 Wind from W
Wind: W 8 mph , 13 km/h
Temperature: 61°F , 16°C
Dew Point: 55°F , 13°C
Humidity: 83%
Barometer: 30.03 inHg , 1016.9 hPa
Clouds: Overcast
Visibility: 10 miles , 16 km
Cloud details: Mostly Cloudy 1100 ft
Overcast 1400 ft
2018/06/25 19:07 KMRY 251907Z 28007KT 10SM BKN011 OVC014 16/13 A3003 RMK AO2 CIG 008V012 T01560133
KCCR - Concord, California, USA
Distance from station: N 50mi, 81km
Updated: Mon, 25-Jun-2018 11:53am PDT
Clear
Clear
 Wind from SW
Wind: SW 12 mph , 19 km/h, Gust: 17 mph , 28 km/h
Temperature: 73°F , 23°C
Dew Point: 55°F , 13°C
Humidity: 53%
Barometer: 29.95 inHg , 1014.2 hPa
Clouds: Clear
Visibility: 10 miles , 16 km
2018/06/25 18:53 KCCR 251853Z 22010G15KT 10SM CLR 23/13 A2995 RMK AO2 SLP128 T02330128
deformed-offering